createdAt,value
2019-03-09T00:00:45.872Z,98354.56
2019-03-09T00:03:19.299Z,98357.70
2019-03-09T00:05:51.073Z,98358.45
2019-03-09T00:08:23.168Z,98346.14
2019-03-09T00:10:54.779Z,98351.07
2019-03-09T00:13:28.107Z,98362.84
2019-03-09T00:16:00.009Z,98363.80
2019-03-09T00:18:31.428Z,98372.71
2019-03-09T00:21:03.210Z,98361.98
2019-03-09T00:23:53.687Z,98360.12
2019-03-09T00:26:37.239Z,98361.98
2019-03-09T00:29:18.620Z,98362.30
2019-03-09T00:31:56.012Z,98365.19
2019-03-09T00:34:27.098Z,98363.53
2019-03-09T00:36:59.188Z,98361.23
2019-03-09T00:39:29.896Z,98365.62
2019-03-09T00:42:00.313Z,98356.00
2019-03-09T00:44:31.031Z,98353.23
2019-03-09T00:47:01.944Z,98360.41
2019-03-09T00:49:32.802Z,98363.73
2019-03-09T00:52:03.858Z,98359.18
2019-03-09T00:54:36.748Z,98363.97
2019-03-09T00:57:08.145Z,98361.72
2019-03-09T00:59:39.308Z,98354.16
2019-03-09T01:02:10.086Z,98358.11
2019-03-09T01:04:40.953Z,98355.03
2019-03-09T01:07:11.731Z,98358.86
2019-03-09T01:09:42.126Z,98354.63
2019-03-09T01:12:12.784Z,98354.43
2019-03-09T01:14:43.292Z,98354.78
2019-03-09T01:17:14.000Z,98345.64
2019-03-09T01:19:45.057Z,98349.32
2019-03-09T01:22:15.719Z,98348.49
2019-03-09T01:24:46.485Z,98356.48
2019-03-09T01:27:16.873Z,98346.20
2019-03-09T01:29:47.574Z,98347.22
2019-03-09T01:32:18.084Z,98343.11
2019-03-09T01:34:48.650Z,98345.80
2019-03-09T01:37:19.270Z,98341.28
2019-03-09T01:39:49.805Z,98354.66
2019-03-09T01:42:20.230Z,98344.33
2019-03-09T01:44:50.653Z,98352.55
2019-03-09T01:47:21.223Z,98348.94
2019-03-09T01:49:51.694Z,98342.84
2019-03-09T01:52:22.594Z,98347.39
2019-03-09T01:54:53.044Z,98341.56
2019-03-09T01:57:23.573Z,98349.83
2019-03-09T01:59:54.559Z,98346.14
2019-03-09T02:02:25.155Z,98353.18
2019-03-09T02:04:55.741Z,98349.77
2019-03-09T02:07:26.169Z,98352.66
2019-03-09T02:09:56.567Z,98356.06
2019-03-09T02:12:28.781Z,98354.95
2019-03-09T02:15:00.344Z,98355.89
2019-03-09T02:17:30.888Z,98351.69
2019-03-09T02:20:01.765Z,98352.42
2019-03-09T02:22:32.469Z,98360.18
2019-03-09T02:25:02.934Z,98352.86
2019-03-09T02:27:33.781Z,98345.81
2019-03-09T02:30:04.506Z,98347.50
2019-03-09T02:32:36.684Z,98342.95
2019-03-09T02:35:09.612Z,98354.02
2019-03-09T02:37:40.343Z,98346.23
2019-03-09T02:40:13.718Z,98346.37
2019-03-09T02:42:44.657Z,98334.80
2019-03-09T02:45:16.543Z,98335.50
2019-03-09T02:47:47.035Z,98328.27
2019-03-09T02:50:17.512Z,98341.63
2019-03-09T02:52:48.176Z,98328.18
2019-03-09T02:55:18.608Z,98319.28
2019-03-09T02:57:49.721Z,98322.83
2019-03-09T03:00:21.276Z,98331.63
2019-03-09T03:03:01.325Z,98327.59
2019-03-09T03:05:31.756Z,98321.39
2019-03-09T03:08:02.371Z,98314.81
2019-03-09T03:10:33.460Z,98324.82
2019-03-09T03:13:04.136Z,98310.87
2019-03-09T03:15:35.947Z,98319.45
2019-03-09T03:18:06.699Z,98311.16
2019-03-09T03:20:37.834Z,98313.84
2019-03-09T03:23:08.284Z,98316.53
2019-03-09T03:25:38.728Z,98326.16
2019-03-09T03:28:11.726Z,98318.19
2019-03-09T03:30:42.608Z,98326.16
2019-03-09T03:33:13.425Z,98329.45
2019-03-09T03:35:43.927Z,98315.30
2019-03-09T03:38:14.271Z,98316.65
2019-03-09T03:40:46.345Z,98315.19
2019-03-09T03:43:17.003Z,98319.67
2019-03-09T03:45:48.064Z,98314.42
2019-03-09T03:48:18.728Z,98306.17
2019-03-09T03:50:49.548Z,98304.85
2019-03-09T03:53:20.379Z,98305.60
2019-03-09T03:55:51.141Z,98306.98
2019-03-09T03:58:22.144Z,98300.98
2019-03-09T04:00:52.654Z,98300.79
2019-03-09T04:03:23.039Z,98294.48
2019-03-09T04:05:53.864Z,98286.01
2019-03-09T04:08:24.446Z,98291.89
2019-03-09T04:10:55.240Z,98296.95
2019-03-09T04:13:25.939Z,98281.25
2019-03-09T04:15:56.488Z,98290.23
2019-03-09T04:18:27.089Z,98284.45
2019-03-09T04:20:57.491Z,98289.20
2019-03-09T04:23:29.647Z,98294.40
2019-03-09T04:26:00.453Z,98296.36
2019-03-09T04:28:30.812Z,98288.52
2019-03-09T04:31:02.497Z,98278.62
2019-03-09T04:33:33.048Z,98283.15
2019-03-09T04:36:03.454Z,98277.37
2019-03-09T04:38:33.920Z,98273.34
2019-03-09T04:41:04.911Z,98277.59
2019-03-09T04:43:36.303Z,98282.64
2019-03-09T04:46:06.795Z,98274.59
2019-03-09T04:48:37.351Z,98266.22
2019-03-09T04:51:07.911Z,98265.29
2019-03-09T04:53:38.430Z,98257.23
2019-03-09T04:56:08.962Z,98252.18
2019-03-09T04:58:40.474Z,98250.33
2019-03-09T05:01:10.943Z,98245.47
2019-03-09T05:03:42.417Z,98255.61
2019-03-09T05:06:15.621Z,98242.88
2019-03-09T05:09:25.333Z,98245.19
2019-03-09T05:11:55.784Z,98234.64
2019-03-09T05:14:27.134Z,98239.09
2019-03-09T05:16:57.556Z,98235.47
2019-03-09T05:19:29.314Z,98237.66
2019-03-09T05:22:00.846Z,98239.93
2019-03-09T05:24:31.495Z,98246.36
2019-03-09T05:27:02.077Z,98242.94
2019-03-09T05:29:32.476Z,98240.02
2019-03-09T05:32:04.629Z,98244.14
2019-03-09T05:34:35.340Z,98249.52
2019-03-09T05:37:05.792Z,98251.77
2019-03-09T05:39:37.564Z,98248.05
2019-03-09T05:42:10.211Z,98242.27
2019-03-09T05:44:40.715Z,98235.55
2019-03-09T05:47:11.129Z,98242.55
2019-03-09T05:49:42.022Z,98234.91
2019-03-09T05:52:37.931Z,98225.31
2019-03-09T05:55:12.442Z,98217.11
2019-03-09T05:57:42.958Z,98220.61
2019-03-09T06:00:15.403Z,98225.05
2019-03-09T06:02:45.843Z,98223.99
2019-03-09T06:05:49.400Z,98224.82
2019-03-09T06:08:20.105Z,98229.66
2019-03-09T06:10:50.675Z,98224.75
2019-03-09T06:13:21.065Z,98226.38
2019-03-09T06:15:51.515Z,98231.93
2019-03-09T06:18:22.175Z,98224.04
2019-03-09T06:20:52.529Z,98212.23
2019-03-09T06:23:22.874Z,98217.29
2019-03-09T06:25:54.792Z,98210.67
2019-03-09T06:28:25.604Z,98202.10
2019-03-09T06:30:56.612Z,98193.27
2019-03-09T06:33:34.396Z,98190.50
2019-03-09T06:36:57.128Z,98200.11
2019-03-09T06:39:32.991Z,98198.77
2019-03-09T06:42:29.451Z,98193.87
2019-03-09T06:44:59.986Z,98195.92
2019-03-09T06:47:30.597Z,98192.96
2019-03-09T06:50:01.101Z,98187.49
2019-03-09T06:52:32.462Z,98192.98
2019-03-09T06:55:03.176Z,98199.61
2019-03-09T06:57:34.024Z,98194.76
2019-03-09T07:00:35.989Z,98190.88
2019-03-09T07:03:07.480Z,98179.61
2019-03-09T07:05:37.931Z,98170.11
2019-03-09T07:08:08.453Z,98179.89
2019-03-09T07:10:38.798Z,98175.70
2019-03-09T07:13:09.203Z,98172.76
2019-03-09T07:15:42.202Z,98175.58
2019-03-09T07:18:17.836Z,98164.62
2019-03-09T07:20:48.514Z,98162.63
2019-03-09T07:23:18.966Z,98155.95
2019-03-09T07:25:49.707Z,98156.50
2019-03-09T07:28:21.004Z,98146.74
2019-03-09T07:30:52.005Z,98141.56
2019-03-09T07:33:22.437Z,98137.00
2019-03-09T07:35:54.708Z,98140.39
2019-03-09T07:38:25.485Z,98147.03
2019-03-09T07:40:56.310Z,98136.45
2019-03-09T07:43:27.136Z,98135.23
2019-03-09T07:45:58.020Z,98138.73
2019-03-09T07:48:28.450Z,98137.66
2019-03-09T07:50:58.935Z,98129.71
2019-03-09T07:53:29.666Z,98124.71
2019-03-09T07:56:03.296Z,98117.77
2019-03-09T07:58:34.023Z,98124.92
2019-03-09T08:01:06.815Z,98114.65
2019-03-09T08:03:37.591Z,98117.58
2019-03-09T08:06:08.307Z,98100.74
2019-03-09T08:08:38.818Z,98107.98
2019-03-09T08:11:09.240Z,98101.44
2019-03-09T08:13:39.864Z,98106.92
2019-03-09T08:16:10.382Z,98093.89
2019-03-09T08:18:40.996Z,98085.46
2019-03-09T08:21:11.656Z,98073.75
2019-03-09T08:23:42.431Z,98074.98
2019-03-09T08:26:14.243Z,98066.76
2019-03-09T08:28:44.713Z,98061.27
2019-03-09T08:31:15.290Z,98053.56
2019-03-09T08:33:45.646Z,98047.39
2019-03-09T08:36:16.282Z,98050.96
2019-03-09T08:38:46.641Z,98045.59
2019-03-09T08:41:17.294Z,98033.01
2019-03-09T08:43:47.749Z,98032.34
2019-03-09T08:46:18.251Z,98026.70
2019-03-09T08:48:48.661Z,98033.47
2019-03-09T08:51:19.086Z,98021.33
2019-03-09T08:53:50.607Z,98021.75
2019-03-09T08:56:21.052Z,98005.17
2019-03-09T08:58:51.510Z,98010.11
2019-03-09T09:01:21.978Z,97998.05
2019-03-09T09:03:52.545Z,98003.08
2019-03-09T09:06:23.129Z,98012.70
2019-03-09T09:08:53.620Z,97985.59
2019-03-09T09:11:25.386Z,97982.88
2019-03-09T09:13:55.902Z,97980.15
2019-03-09T09:16:26.648Z,97972.84
2019-03-09T09:18:58.365Z,97985.89
2019-03-09T09:21:28.976Z,97996.75
2019-03-09T09:23:59.535Z,97959.81
2019-03-09T09:26:30.186Z,97957.73
2019-03-09T09:29:00.650Z,97950.06
2019-03-09T09:31:31.384Z,97944.88
2019-03-09T09:34:02.037Z,97951.08
2019-03-09T09:36:32.885Z,97924.30
2019-03-09T09:39:04.037Z,97923.36
2019-03-09T09:41:36.305Z,97906.55
2019-03-09T09:44:06.840Z,97893.70
2019-03-09T09:46:37.398Z,97895.52
2019-03-09T09:49:07.886Z,97889.50
2019-03-09T09:51:38.480Z,97891.41
2019-03-09T09:54:09.143Z,97915.99
2019-03-09T09:56:39.668Z,97876.03
2019-03-09T09:59:10.342Z,97908.55
2019-03-09T10:01:40.902Z,97902.98
2019-03-09T10:04:11.278Z,97899.41
2019-03-09T10:06:41.773Z,97888.23
2019-03-09T10:09:12.507Z,97880.16
2019-03-09T10:11:43.074Z,97869.16
2019-03-09T10:14:13.438Z,97885.84
2019-03-09T10:16:44.050Z,97848.58
2019-03-09T10:19:14.427Z,97857.33
2019-03-09T10:21:45.054Z,97851.73
2019-03-09T10:24:16.749Z,97849.13
2019-03-09T10:26:47.862Z,97829.03
2019-03-09T10:29:18.440Z,97828.73
2019-03-09T10:31:49.361Z,97838.44
2019-03-09T10:34:19.732Z,97816.65
2019-03-09T10:36:50.286Z,97839.20
2019-03-09T10:39:20.740Z,97810.88
2019-03-09T10:41:51.099Z,97809.29
2019-03-09T10:44:21.807Z,97809.30
2019-03-09T10:46:52.164Z,97832.34
2019-03-09T10:49:22.675Z,97846.84
2019-03-09T10:51:53.144Z,97808.02
2019-03-09T10:54:23.564Z,97776.02
2019-03-09T10:56:53.992Z,97776.53
2019-03-09T10:59:24.449Z,97787.80
2019-03-09T11:01:54.822Z,97793.78
2019-03-09T11:04:27.805Z,97789.41
2019-03-09T11:06:57.703Z,97801.39
2019-03-09T11:09:28.094Z,97776.33
2019-03-09T11:11:58.593Z,97796.61
2019-03-09T11:14:29.010Z,97763.42
2019-03-09T11:16:59.528Z,97787.02
2019-03-09T11:19:29.944Z,97784.30
2019-03-09T11:22:00.499Z,97825.47
2019-03-09T11:24:31.808Z,97778.33
2019-03-09T11:27:02.208Z,97767.25
2019-03-09T11:29:32.545Z,97772.52
2019-03-09T11:32:02.966Z,97770.31
2019-03-09T11:34:33.350Z,97776.36
2019-03-09T11:37:03.875Z,97764.36
2019-03-09T11:39:34.189Z,97758.04
2019-03-09T11:42:04.974Z,97752.02
2019-03-09T11:44:35.442Z,97770.02
2019-03-09T11:47:07.435Z,97752.96
2019-03-09T11:49:38.741Z,97768.20
2019-03-09T11:52:16.330Z,97739.14
2019-03-09T11:54:41.434Z,97740.84
2019-03-09T11:57:12.215Z,97751.97
2019-03-09T11:59:42.532Z,97727.69
2019-03-09T12:02:12.941Z,97713.57
2019-03-09T12:04:47.088Z,97729.05
2019-03-09T12:07:17.803Z,97710.65
2019-03-09T12:09:48.307Z,97721.80
2019-03-09T12:12:18.757Z,97714.20
2019-03-09T12:14:49.354Z,97737.73
2019-03-09T12:17:19.752Z,97756.22
2019-03-09T12:19:50.152Z,97781.30
2019-03-09T12:22:20.579Z,97786.80
2019-03-09T12:24:53.989Z,97781.27
2019-03-09T12:27:24.558Z,97821.84
2019-03-09T12:29:55.265Z,97811.19
2019-03-09T12:32:25.785Z,97776.42
2019-03-09T12:34:56.572Z,97787.41
2019-03-09T12:37:27.065Z,97798.55
2019-03-09T12:39:57.534Z,97828.60
2019-03-09T12:42:28.076Z,97829.56
2019-03-09T12:44:58.807Z,97846.09
2019-03-09T12:47:29.192Z,97823.10
2019-03-09T12:49:59.795Z,97843.50
2019-03-09T12:52:30.432Z,97827.02
2019-03-09T12:55:00.881Z,97811.47
2019-03-09T12:57:32.666Z,97746.79
2019-03-09T13:00:03.291Z,97804.83
2019-03-09T13:02:33.963Z,97798.11
2019-03-09T13:05:04.455Z,97780.06
2019-03-09T13:07:34.854Z,97781.20
2019-03-09T13:10:06.217Z,97781.52
2019-03-09T13:12:38.998Z,97780.17
2019-03-09T13:15:09.541Z,97779.95
2019-03-09T13:17:41.033Z,97781.42
2019-03-09T13:20:11.798Z,97762.20
2019-03-09T13:22:42.236Z,97771.88
2019-03-09T13:25:12.838Z,97772.22
2019-03-09T13:27:43.578Z,97772.78
2019-03-09T13:30:16.568Z,97777.45
2019-03-09T13:32:47.322Z,97779.92
2019-03-09T13:35:17.699Z,97791.73
2019-03-09T13:37:48.733Z,97795.25
2019-03-09T13:40:19.145Z,97794.05
2019-03-09T13:42:49.553Z,97781.67
2019-03-09T13:45:19.872Z,97785.52
2019-03-09T13:47:50.260Z,97789.67
2019-03-09T13:50:20.649Z,97780.53
2019-03-09T13:52:52.483Z,97779.53
2019-03-09T13:55:23.233Z,97756.58
2019-03-09T13:57:55.496Z,97756.92
2019-03-09T14:00:26.124Z,97754.86
2019-03-09T14:02:56.868Z,97756.06
2019-03-09T14:05:27.713Z,97754.48
2019-03-09T14:07:59.853Z,97767.61
2019-03-09T14:10:30.621Z,97754.73
2019-03-09T14:13:01.021Z,97755.14
2019-03-09T14:15:31.700Z,97749.39
2019-03-09T14:18:02.308Z,97742.04
2019-03-09T14:20:32.689Z,97748.23
2019-03-09T14:23:03.087Z,97719.84
2019-03-09T14:25:33.690Z,97742.33
2019-03-09T14:28:04.434Z,97743.41
2019-03-09T14:30:35.249Z,97742.40
2019-03-09T14:33:05.873Z,97715.44
2019-03-09T14:35:36.273Z,97735.88
2019-03-09T14:38:06.792Z,97731.36
2019-03-09T14:40:37.241Z,97721.49
2019-03-09T14:43:07.716Z,97710.70
2019-03-09T14:45:38.551Z,97697.06
2019-03-09T14:48:09.233Z,97689.80
2019-03-09T14:50:39.813Z,97717.49
2019-03-09T14:53:10.278Z,97705.72
2019-03-09T14:55:40.738Z,97702.23
2019-03-09T14:58:11.163Z,97699.98
2019-03-09T15:00:41.519Z,97710.10
2019-03-09T15:03:11.947Z,97714.02
2019-03-09T15:05:42.312Z,97705.41
2019-03-09T15:08:14.944Z,97698.63
2019-03-09T15:10:45.411Z,97687.54
2019-03-09T15:13:15.911Z,97680.05
2019-03-09T15:15:46.375Z,97701.52
2019-03-09T15:18:16.695Z,97683.65
2019-03-09T15:20:47.180Z,97687.70
2019-03-09T15:23:17.523Z,97682.02
2019-03-09T15:25:47.967Z,97672.05
2019-03-09T15:28:18.437Z,97662.48
2019-03-09T15:30:48.831Z,97669.45
2019-03-09T15:33:21.702Z,97673.12
2019-03-09T15:35:53.891Z,97667.69
2019-03-09T15:38:24.286Z,97660.94
2019-03-09T15:40:54.820Z,97656.35
2019-03-09T15:43:25.443Z,97639.58
2019-03-09T15:45:55.963Z,97633.11
2019-03-09T15:48:26.476Z,97625.80
2019-03-09T15:50:57.479Z,97636.31
2019-03-09T15:53:27.819Z,97637.11
2019-03-09T15:55:58.401Z,97638.70
2019-03-09T15:58:31.009Z,97620.05
2019-03-09T16:01:01.540Z,97617.84
2019-03-09T16:03:32.266Z,97613.78
2019-03-09T16:06:02.776Z,97610.53
2019-03-09T16:08:33.183Z,97606.45
2019-03-09T16:11:03.868Z,97607.53
2019-03-09T16:13:34.360Z,97612.88
2019-03-09T16:16:05.001Z,97604.25
2019-03-09T16:18:35.388Z,97602.63
2019-03-09T16:21:05.752Z,97594.79
2019-03-09T16:23:36.116Z,97596.70
2019-03-09T16:26:06.599Z,97596.56
2019-03-09T16:28:37.091Z,97596.56
2019-03-09T16:31:07.474Z,97597.33
2019-03-09T16:33:37.869Z,97604.05
2019-03-09T16:36:08.350Z,97597.86
2019-03-09T16:38:38.908Z,97594.27
2019-03-09T16:41:09.728Z,97599.70
2019-03-09T16:43:40.542Z,97597.22
2019-03-09T16:46:11.408Z,97589.38
2019-03-09T16:48:41.897Z,97590.98
2019-03-09T16:51:12.550Z,97584.82
2019-03-09T16:53:43.464Z,97580.19
2019-03-09T16:56:14.002Z,97557.72
2019-03-09T16:58:46.622Z,97557.72
2019-03-09T17:01:17.145Z,97573.43
2019-03-09T17:03:47.663Z,97567.91
2019-03-09T17:06:18.368Z,97576.98
2019-03-09T17:08:49.195Z,97584.59
2019-03-09T17:11:20.124Z,97587.55
2019-03-09T17:13:50.834Z,97575.40
2019-03-09T17:16:21.288Z,97578.92
2019-03-09T17:18:52.200Z,97575.66
2019-03-09T17:21:22.974Z,97571.91
2019-03-09T17:23:53.732Z,97573.52
2019-03-09T17:26:24.478Z,97579.77
2019-03-09T17:28:54.909Z,97572.73
2019-03-09T17:31:25.611Z,97586.76
2019-03-09T17:33:56.295Z,97575.98
2019-03-09T17:36:27.484Z,97560.08
2019-03-09T17:38:58.468Z,97560.66
2019-03-09T17:41:29.486Z,97559.05
2019-03-09T17:44:01.774Z,97556.61
2019-03-09T17:46:33.331Z,97548.30
2019-03-09T17:49:03.843Z,97543.45
2019-03-09T17:51:34.722Z,97535.34
2019-03-09T17:54:07.912Z,97529.73
2019-03-09T17:56:38.450Z,97554.10
2019-03-09T17:59:09.148Z,97534.17
2019-03-09T18:01:39.671Z,97537.17
2019-03-09T18:04:10.647Z,97530.17
2019-03-09T18:06:41.322Z,97542.13
2019-03-09T18:09:13.257Z,97534.27
2019-03-09T18:11:44.019Z,97527.81
2019-03-09T18:14:14.907Z,97518.33
2019-03-09T18:16:52.458Z,97509.11
2019-03-09T18:19:17.662Z,97531.52
2019-03-09T18:21:48.870Z,97486.41
2019-03-09T18:24:19.522Z,97487.20
2019-03-09T18:26:50.722Z,97473.94
2019-03-09T18:29:21.055Z,97486.07
2019-03-09T18:31:51.872Z,97486.07
2019-03-09T18:34:22.485Z,97462.02
2019-03-09T18:36:53.082Z,97476.06
2019-03-09T18:39:23.746Z,97479.84
2019-03-09T18:41:54.588Z,97478.81
2019-03-09T18:44:25.437Z,97471.77
2019-03-09T18:46:56.167Z,97467.20
2019-03-09T18:49:26.839Z,97474.54
2019-03-09T18:51:57.653Z,97479.98
2019-03-09T18:54:29.634Z,97473.80
2019-03-09T18:57:00.640Z,97476.58
2019-03-09T18:59:31.248Z,97484.69
2019-03-09T19:02:02.107Z,97492.98
2019-03-09T19:04:33.183Z,97502.64
2019-03-09T19:07:03.841Z,97465.44
2019-03-09T19:09:34.419Z,97465.00
2019-03-09T19:12:04.883Z,97473.77
2019-03-09T19:14:35.801Z,97437.20
2019-03-09T19:17:06.576Z,97457.45
2019-03-09T19:19:37.178Z,97452.97
2019-03-09T19:22:07.722Z,97463.00
2019-03-09T19:24:38.658Z,97476.48
2019-03-09T19:27:10.632Z,97454.06
2019-03-09T19:29:41.330Z,97454.06
2019-03-09T19:32:12.369Z,97454.78
2019-03-09T19:34:42.801Z,97456.91
2019-03-09T19:37:13.330Z,97449.66
2019-03-09T19:39:43.933Z,97443.96
2019-03-09T19:42:14.851Z,97435.84
2019-03-09T19:44:45.472Z,97440.18
2019-03-09T19:47:16.456Z,97441.76
2019-03-09T19:49:47.304Z,97437.19
2019-03-09T19:52:18.123Z,97433.44
2019-03-09T19:54:48.783Z,97423.70
2019-03-09T19:57:19.164Z,97426.96
2019-03-09T19:59:49.529Z,97434.23
2019-03-09T20:02:20.271Z,97443.96
2019-03-09T20:04:50.731Z,97444.00
2019-03-09T20:07:21.578Z,97445.87
2019-03-09T20:09:52.541Z,97444.98
2019-03-09T20:12:23.387Z,97426.59
2019-03-09T20:14:53.998Z,97440.02
2019-03-09T20:17:25.671Z,97422.45
2019-03-09T20:19:56.420Z,97423.24
2019-03-09T20:22:27.076Z,97426.43
2019-03-09T20:24:59.059Z,97420.52
2019-03-09T20:27:30.085Z,97419.92
2019-03-09T20:30:00.742Z,97417.00
2019-03-09T20:32:31.700Z,97428.86
2019-03-09T20:35:02.485Z,97429.36
2019-03-09T20:37:33.172Z,97422.61
2019-03-09T20:40:04.409Z,97421.27
2019-03-09T20:42:36.004Z,97411.87
2019-03-09T20:45:08.575Z,97413.18
2019-03-09T20:47:39.029Z,97407.27
2019-03-09T20:50:11.091Z,97400.23
2019-03-09T20:52:41.762Z,97408.09
2019-03-09T20:55:12.360Z,97401.37
2019-03-09T20:57:44.107Z,97399.55
2019-03-09T21:00:16.369Z,97406.58
2019-03-09T21:02:47.043Z,97408.72
2019-03-09T21:05:18.066Z,97414.41
2019-03-09T21:07:48.759Z,97412.27
2019-03-09T21:10:19.396Z,97406.02
2019-03-09T21:12:57.430Z,97409.83
2019-03-09T21:15:27.910Z,97404.73
2019-03-09T21:17:58.650Z,97390.47
2019-03-09T21:20:29.086Z,97387.02
2019-03-09T21:22:59.893Z,97374.13
2019-03-09T21:25:30.272Z,97362.02
2019-03-09T21:28:01.022Z,97353.95
2019-03-09T21:30:31.475Z,97349.09
2019-03-09T21:33:01.896Z,97349.13
2019-03-09T21:35:33.157Z,97340.70
2019-03-09T21:38:03.539Z,97328.89
2019-03-09T21:40:34.061Z,97325.32
2019-03-09T21:43:04.442Z,97320.22
2019-03-09T21:45:34.881Z,97316.73
2019-03-09T21:48:05.865Z,97315.09
2019-03-09T21:50:36.265Z,97299.17
2019-03-09T21:53:06.755Z,97292.14
2019-03-09T21:55:37.500Z,97281.97
2019-03-09T21:58:08.053Z,97285.45
2019-03-09T22:00:38.504Z,97278.69
2019-03-09T22:03:09.035Z,97276.27
2019-03-09T22:05:39.450Z,97264.66
2019-03-09T22:08:09.998Z,97261.19
2019-03-09T22:10:40.424Z,97256.38
2019-03-09T22:13:11.836Z,97260.16
2019-03-09T22:15:43.545Z,97265.87
2019-03-09T22:18:14.941Z,97265.66
2019-03-09T22:20:45.414Z,97255.88
2019-03-09T22:23:15.743Z,97252.84
2019-03-09T22:25:46.154Z,97263.73
2019-03-09T22:28:18.368Z,97253.19
2019-03-09T22:30:48.964Z,97262.48
2019-03-09T22:33:19.409Z,97249.61
2019-03-09T22:35:50.201Z,97234.00
2019-03-09T22:38:20.617Z,97227.31
2019-03-09T22:40:50.929Z,97226.13
2019-03-09T22:43:21.353Z,97222.20
2019-03-09T22:45:51.755Z,97221.97
2019-03-09T22:48:23.184Z,97230.72
2019-03-09T22:50:53.702Z,97215.92
2019-03-09T22:53:24.092Z,97205.27
2019-03-09T22:55:54.705Z,97208.16
2019-03-09T22:58:25.213Z,97187.53
2019-03-09T23:00:55.813Z,97179.46
2019-03-09T23:03:26.274Z,97183.77
2019-03-09T23:05:56.763Z,97166.17
2019-03-09T23:08:27.382Z,97176.45
2019-03-09T23:10:57.836Z,97157.02
2019-03-09T23:13:28.253Z,97149.48
2019-03-09T23:15:58.733Z,97151.88
2019-03-09T23:18:29.246Z,97137.61
2019-03-09T23:21:00.069Z,97153.25
2019-03-09T23:23:30.542Z,97142.27
2019-03-09T23:26:01.103Z,97119.12
2019-03-09T23:28:46.235Z,97134.98
2019-03-09T23:31:17.039Z,97134.83
2019-03-09T23:33:47.620Z,97138.34
2019-03-09T23:36:18.223Z,97128.14
2019-03-09T23:38:48.958Z,97098.10
2019-03-09T23:41:19.499Z,97124.71
2019-03-09T23:43:50.152Z,97110.43
2019-03-09T23:46:20.632Z,97124.59
2019-03-09T23:48:51.411Z,97137.03
2019-03-09T23:51:22.141Z,97143.77
2019-03-09T23:53:53.844Z,97131.12
2019-03-09T23:56:26.741Z,97123.02
2019-03-09T23:58:59.277Z,97126.66
